Time;durP1;ratioP1;P1;durP2;ratioP2;P2;SDS_P1;SDS_P2;PMS_P1;PMS_P2;Temp;Humidity;BMP_temperature;BMP_pressure;BME280_temperature;BME280_humidity;BME280_pressure;Samples;Min_cycle;Max_cycle;Signal;HPM_P1;HPM_P2
2023/09/09 00:00:53;;;;;;;137.70;82.78;;;;;;;-146.27;87.38;80717.22;5042880;28;20030;-68
2023/09/09 00:03:20;;;;;;;132.77;81.47;;;;;;;-146.27;86.92;80701.16;5045979;28;20053;-71
2023/09/09 00:05:45;;;;;;;134.63;82.22;;;;;;;-146.27;86.21;80703.16;5033885;28;20309;-68
2023/09/09 00:08:10;;;;;;;138.10;86.10;;;;;;;-146.27;87.49;80689.13;5044316;28;20393;-68
2023/09/09 00:10:37;;;;;;;134.40;82.70;;;;;;;-146.27;87.62;80691.13;5049359;28;20026;-68
2023/09/09 00:13:04;;;;;;;134.45;84.82;;;;;;;-146.27;88.21;80673.06;5051730;28;20103;-68
2023/09/09 00:15:31;;;;;;;140.88;85.80;;;;;;;-146.27;88.00;80638.91;5047174;28;20056;-68
2023/09/09 00:17:56;;;;;;;134.63;84.80;;;;;;;-146.27;87.59;80652.97;5051535;28;20044;-68
2023/09/09 00:20:48;;;;;;;133.77;85.90;;;;;;;-146.27;87.94;80640.94;5043648;28;20469;-69
2023/09/09 00:23:13;;;;;;;133.90;82.97;;;;;;;-146.27;87.15;80709.19;5042704;28;20051;-69
2023/09/09 00:25:41;;;;;;;129.05;81.65;;;;;;;-146.27;87.29;80669.03;5047067;28;20028;-68
2023/09/09 00:28:08;;;;;;;127.80;83.25;;;;;;;-146.27;87.09;80721.25;5042068;28;20441;-68
2023/09/09 00:30:34;;;;;;;131.73;82.20;;;;;;;-146.27;86.82;80753.38;5043386;28;20108;-67
2023/09/09 00:33:00;;;;;;;130.15;82.25;;;;;;;-146.27;87.25;80785.50;5044953;28;20444;-68
2023/09/09 00:35:26;;;;;;;133.18;85.75;;;;;;;-146.27;87.52;80813.59;5044916;28;21687;-67
2023/09/09 00:37:51;;;;;;;136.88;84.57;;;;;;;-146.27;87.31;80849.75;5053460;28;20029;-67
2023/09/09 00:40:17;;;;;;;133.20;82.60;;;;;;;-146.27;87.32;80809.59;5051472;28;20028;-67
2023/09/09 00:42:42;;;;;;;128.05;81.07;;;;;;;-146.27;86.90;80849.75;5053362;28;20048;-68
2023/09/09 00:45:08;;;;;;;128.10;80.50;;;;;;;-146.27;87.18;80881.88;5049539;28;20055;-68
2023/09/09 00:47:34;;;;;;;127.68;80.68;;;;;;;-146.27;86.98;80918.03;5071497;28;20024;-68
2023/09/09 00:49:59;;;;;;;123.35;79.43;;;;;;;-146.27;87.10;80905.97;5068192;28;20084;-68
2023/09/09 00:52:26;;;;;;;127.43;79.45;;;;;;;-146.27;86.98;80855.78;5053287;28;20560;-67
2023/09/09 00:54:52;;;;;;;120.22;77.03;;;;;;;-146.27;87.32;80974.25;5052977;28;20035;-67
2023/09/09 00:57:18;;;;;;;130.68;79.07;;;;;;;-146.27;86.59;80950.16;5042434;28;20473;-67
2023/09/09 00:59:43;;;;;;;132.20;82.38;;;;;;;-146.27;87.31;80970.25;5041714;28;20036;-68
2023/09/09 01:02:08;;;;;;;133.10;80.93;;;;;;;-146.27;86.95;80998.34;5052114;28;20057;-68
2023/09/09 01:04:34;;;;;;;130.00;80.55;;;;;;;-146.27;86.49;81014.41;5047313;28;20371;-68
2023/09/09 01:07:02;;;;;;;143.93;83.35;;;;;;;-146.27;87.26;81010.41;5045228;28;20029;-68
2023/09/09 01:09:29;;;;;;;137.52;83.60;;;;;;;-146.27;87.46;81028.47;5033413;28;20025;-68
2023/09/09 01:11:55;;;;;;;141.63;84.82;;;;;;;-146.27;87.02;81038.50;5032826;28;20033;-67
2023/09/09 01:14:20;;;;;;;134.13;80.68;;;;;;;-146.27;86.76;81046.53;5033828;28;20064;-68
2023/09/09 01:16:50;;;;;;;139.65;86.47;;;;;;;-146.27;87.51;81090.72;5038430;28;20033;-68
2023/09/09 01:19:19;;;;;;;133.82;79.20;;;;;;;-146.27;87.18;81106.78;5050153;28;20060;-68
2023/09/09 01:21:46;;;;;;;133.05;82.82;;;;;;;-146.27;87.48;81126.88;5040667;28;20025;-67
2023/09/09 01:24:15;;;;;;;135.32;83.50;;;;;;;-146.27;87.38;81090.72;5046306;28;20033;-69
2023/09/09 01:26:44;;;;;;;137.48;82.25;;;;;;;-146.27;87.63;81116.84;5050923;28;20029;-66
2023/09/09 01:29:10;;;;;;;134.77;81.93;;;;;;;-146.27;87.24;81106.78;5068661;28;20024;-66
2023/09/09 01:31:35;;;;;;;131.68;80.43;;;;;;;-146.27;87.72;81140.94;5033661;28;20092;-68
2023/09/09 01:34:01;;;;;;;135.38;81.88;;;;;;;-146.27;87.32;81148.97;5032688;28;20033;-67
2023/09/09 01:36:26;;;;;;;131.02;80.85;;;;;;;-146.27;87.54;81157.00;5040143;28;20025;-67
2023/09/09 01:38:52;;;;;;;123.45;76.93;;;;;;;-146.27;87.47;81150.97;5036080;28;20553;-67
2023/09/09 01:41:17;;;;;;;131.52;81.78;;;;;;;-146.27;87.05;81150.97;5052331;28;20016;-68
2023/09/09 01:43:42;;;;;;;126.55;78.65;;;;;;;-146.27;86.97;81155.00;5051044;28;20020;-68
2023/09/09 01:46:08;;;;;;;139.52;82.38;;;;;;;-146.27;87.43;81183.09;5046022;28;20035;-68
2023/09/09 01:48:33;;;;;;;132.82;82.78;;;;;;;-146.27;87.38;81167.03;5037210;28;20547;-68
2023/09/09 01:50:59;;;;;;;132.85;79.97;;;;;;;-146.27;87.33;81205.19;5047601;28;20029;-67
2023/09/09 01:53:24;;;;;;;128.13;80.00;;;;;;;-146.27;86.92;81163.03;5043815;28;20032;-68
2023/09/09 01:55:49;;;;;;;132.15;80.50;;;;;;;-146.27;86.77;81207.19;5045461;28;20028;-68
2023/09/09 01:58:15;;;;;;;126.10;79.85;;;;;;;-146.27;87.53;81235.31;5047359;28;20080;-68
2023/09/09 02:00:41;;;;;;;129.45;80.00;;;;;;;-146.27;87.36;81223.25;5039331;28;20405;-68
2023/09/09 02:03:06;;;;;;;125.90;76.22;;;;;;;-146.27;87.09;81223.25;5031680;28;20038;-68
2023/09/09 02:05:32;;;;;;;126.93;79.00;;;;;;;-146.27;87.17;81213.22;5041867;28;20106;-68
2023/09/09 02:07:57;;;;;;;128.85;76.97;;;;;;;-146.27;86.92;81225.28;5043399;28;20461;-68
2023/09/09 02:10:22;;;;;;;130.98;78.82;;;;;;;-146.27;87.44;81311.63;5047693;28;20504;-68
2023/09/09 02:12:48;;;;;;;132.70;79.80;;;;;;;-146.27;87.43;81269.47;5031729;28;20022;-68
2023/09/09 02:15:13;;;;;;;124.95;75.88;;;;;;;-146.27;87.62;81335.72;5047236;28;20138;-67
2023/09/09 02:17:39;;;;;;;133.65;77.50;;;;;;;-146.27;86.99;81321.66;5042004;28;20025;-68
2023/09/09 02:20:06;;;;;;;133.32;77.60;;;;;;;-146.27;87.05;81337.75;5044853;28;20028;-68
2023/09/09 02:22:31;;;;;;;131.73;77.88;;;;;;;-146.27;87.13;81305.59;5049842;28;20029;-68
2023/09/09 02:24:56;;;;;;;130.95;79.15;;;;;;;-146.27;87.18;81319.66;5041851;28;20037;-67
2023/09/09 02:27:23;;;;;;;133.00;76.47;;;;;;;-146.27;87.44;81371.88;5046782;28;20034;-68
2023/09/09 02:29:49;;;;;;;128.57;74.47;;;;;;;-146.27;87.15;81347.78;5039686;28;20027;-67
2023/09/09 02:32:16;;;;;;;120.78;74.30;;;;;;;-146.27;87.35;81331.72;5031081;28;20072;-68
2023/09/09 02:34:41;;;;;;;122.53;74.22;;;;;;;-146.27;87.08;81375.91;5046663;28;20551;-67
2023/09/09 02:37:12;;;;;;;122.32;70.88;;;;;;;-146.27;87.46;81406.03;5048632;28;20021;-67
2023/09/09 02:39:37;;;;;;;126.57;73.80;;;;;;;-146.27;87.26;81412.03;5049894;28;20548;-67
2023/09/09 02:42:03;;;;;;;124.40;73.07;;;;;;;-146.27;87.38;81305.59;5045890;28;20116;-67
2023/09/09 02:44:28;;;;;;;119.82;72.32;;;;;;;-146.27;87.70;81400.00;5043603;28;20497;-69
2023/09/09 02:46:53;;;;;;;118.25;70.65;;;;;;;-146.27;87.53;81379.91;5043920;28;20057;-69
2023/09/09 02:49:19;;;;;;;119.10;69.97;;;;;;;-146.27;86.92;81408.03;5040802;28;20017;-69
2023/09/09 02:51:44;;;;;;;123.80;71.90;;;;;;;-146.27;87.26;81416.06;5042373;28;20029;-69
2023/09/09 02:54:09;;;;;;;124.78;71.20;;;;;;;-146.27;86.91;81438.16;5045864;28;20027;-69
2023/09/09 02:56:35;;;;;;;120.63;69.78;;;;;;;-146.27;87.35;81424.09;5041894;28;20108;-69
2023/09/09 02:59:00;;;;;;;118.88;69.78;;;;;;;-146.27;87.18;81404.00;5043709;28;20025;-70
2023/09/09 03:01:25;;;;;;;120.40;70.43;;;;;;;-146.27;86.82;81458.22;5034096;28;20029;-71
2023/09/09 03:03:51;;;;;;;117.65;70.82;;;;;;;-146.27;86.93;81452.22;5042644;28;20033;-69
2023/09/09 03:06:16;;;;;;;115.85;70.38;;;;;;;-146.27;87.06;81464.25;5047694;28;20033;-70
2023/09/09 03:08:41;;;;;;;116.65;69.25;;;;;;;-146.27;86.98;81498.41;5030519;28;20021;-69
2023/09/09 03:11:07;;;;;;;120.82;73.57;;;;;;;-146.27;86.94;81528.53;5030593;28;20084;-70
2023/09/09 03:13:32;;;;;;;120.28;71.60;;;;;;;-146.27;87.32;81566.69;5031928;28;20104;-69
2023/09/09 03:15:58;;;;;;;121.05;71.47;;;;;;;-146.27;87.52;81520.50;5045963;28;20052;-69
2023/09/09 03:18:23;;;;;;;119.80;71.50;;;;;;;-146.27;87.62;81498.41;5035922;28;20504;-69
2023/09/09 03:20:48;;;;;;;122.97;71.80;;;;;;;-146.27;87.15;81526.53;5031118;28;20056;-69
2023/09/09 03:23:14;;;;;;;116.20;68.90;;;;;;;-146.27;87.07;81520.50;5045587;28;20025;-69
2023/09/09 03:25:39;;;;;;;111.28;66.55;;;;;;;-146.27;87.14;81540.56;5037638;28;20013;-69
2023/09/09 03:28:05;;;;;;;118.18;70.95;;;;;;;-146.27;87.26;81496.41;5050234;28;20024;-69
2023/09/09 03:30:56;;;;;;;122.18;71.07;;;;;;;-146.27;87.07;81558.66;5039217;28;20033;-69
2023/09/09 03:33:22;;;;;;;118.60;69.28;;;;;;;-146.27;87.28;81510.44;5042552;28;20036;-69
2023/09/09 03:35:47;;;;;;;120.15;68.97;;;;;;;-146.27;87.17;81548.59;5046767;28;20100;-69
2023/09/09 03:38:12;;;;;;;118.90;70.68;;;;;;;-146.27;87.45;81530.53;5048520;28;20532;-69
2023/09/09 03:40:38;;;;;;;122.35;72.25;;;;;;;-146.27;87.26;81548.59;5043821;28;20155;-69
2023/09/09 03:43:03;;;;;;;116.07;68.57;;;;;;;-146.27;87.60;81576.72;5047280;28;20033;-69
2023/09/09 03:45:28;;;;;;;116.18;64.90;;;;;;;-146.27;87.51;81578.75;5035500;28;20037;-69
2023/09/09 03:47:54;;;;;;;114.13;69.47;;;;;;;-146.27;87.64;81584.75;5046005;28;20033;-70
2023/09/09 03:50:19;;;;;;;120.10;68.22;;;;;;;-146.27;87.45;81572.72;5040847;28;20513;-69
2023/09/09 03:52:44;;;;;;;114.32;67.68;;;;;;;-146.27;87.15;81604.84;5040965;28;20021;-69
2023/09/09 03:55:11;;;;;;;121.90;70.38;;;;;;;-146.27;87.54;81584.75;5047270;28;20111;-69
2023/09/09 03:57:36;;;;;;;113.07;66.75;;;;;;;-146.27;87.22;81620.91;5047445;28;20029;-69
2023/09/09 04:00:03;;;;;;;118.47;66.03;;;;;;;-146.27;86.86;81608.88;5047736;28;20499;-69
2023/09/09 04:02:28;;;;;;;111.63;67.95;;;;;;;-146.27;87.32;81612.88;5037520;28;20060;-69
2023/09/09 04:04:53;;;;;;;127.38;73.03;;;;;;;-146.27;87.46;81624.94;5046359;28;20025;-69
2023/09/09 04:07:18;;;;;;;115.25;68.05;;;;;;;-146.27;87.60;81594.81;5037009;28;20057;-69
2023/09/09 04:09:44;;;;;;;115.85;66.72;;;;;;;-146.27;87.22;81620.91;5040727;28;20064;-69
2023/09/09 04:12:09;;;;;;;113.53;66.00;;;;;;;-146.27;87.46;81645.00;5033448;28;20029;-68
2023/09/09 04:14:38;;;;;;;114.68;64.35;;;;;;;-146.27;87.45;81641.00;5041217;28;20052;-68
2023/09/09 04:17:08;;;;;;;107.03;62.67;;;;;;;-146.27;87.01;81649.03;5049010;28;20060;-68
2023/09/09 04:19:33;;;;;;;120.53;66.38;;;;;;;-146.27;87.40;81641.00;5047791;28;20405;-69
2023/09/09 04:21:59;;;;;;;117.72;67.22;;;;;;;-146.27;87.81;81647.03;5043157;28;20029;-69
2023/09/09 04:24:25;;;;;;;118.43;64.40;;;;;;;-146.27;87.66;81626.94;5039828;28;20035;-69
2023/09/09 04:26:50;;;;;;;119.28;67.38;;;;;;;-146.27;87.50;81632.97;5033941;28;20030;-69
2023/09/09 04:29:16;;;;;;;118.22;66.03;;;;;;;-146.27;87.35;81641.00;5045819;28;20025;-69
2023/09/09 04:31:43;;;;;;;116.15;65.93;;;;;;;-146.27;87.36;81653.06;5048621;28;20029;-69
2023/09/09 04:34:08;;;;;;;118.43;64.38;;;;;;;-146.27;87.32;81701.25;5044359;28;20063;-70
2023/09/09 04:36:34;;;;;;;116.93;62.42;;;;;;;-146.27;87.35;81685.19;5037666;28;20057;-69
2023/09/09 04:38:59;;;;;;;115.22;64.85;;;;;;;-146.27;87.42;81689.19;5043280;28;20048;-69
2023/09/09 04:41:25;;;;;;;114.30;63.15;;;;;;;-146.27;87.62;81677.16;5038992;28;20051;-69
2023/09/09 04:43:50;;;;;;;120.07;66.00;;;;;;;-146.27;87.93;81729.38;5028969;28;20033;-69
2023/09/09 04:46:15;;;;;;;116.25;67.68;;;;;;;-146.27;87.96;81679.16;5033303;28;20030;-68
2023/09/09 04:48:41;;;;;;;120.35;65.88;;;;;;;-146.27;87.56;81693.22;5038785;28;20021;-68
2023/09/09 04:51:07;;;;;;;117.55;65.30;;;;;;;-146.27;87.47;81713.31;5040486;28;20526;-68
2023/09/09 04:53:32;;;;;;;119.38;65.20;;;;;;;-146.27;87.47;81687.19;5032273;28;20029;-68
2023/09/09 04:56:00;;;;;;;121.57;68.35;;;;;;;-146.27;87.40;81721.34;5037468;28;20032;-68
2023/09/09 04:58:26;;;;;;;112.25;63.50;;;;;;;-146.27;87.51;81713.31;5040124;28;20039;-69
2023/09/09 05:00:51;;;;;;;117.15;63.13;;;;;;;-146.27;87.22;81733.38;5039701;28;20322;-69
2023/09/09 05:03:16;;;;;;;115.13;64.07;;;;;;;-146.27;87.59;81737.41;5047240;28;20075;-69
2023/09/09 05:05:42;;;;;;;105.72;60.05;;;;;;;-146.27;87.17;81725.34;5052253;28;20128;-68
2023/09/09 05:08:07;;;;;;;104.72;60.72;;;;;;;-146.27;87.16;81725.34;5052780;28;20055;-68
2023/09/09 05:10:34;;;;;;;105.72;60.70;;;;;;;-146.27;87.27;81745.44;5047749;28;20071;-69
2023/09/09 05:12:59;;;;;;;114.05;63.15;;;;;;;-146.27;87.30;81743.44;5047799;28;20108;-68
2023/09/09 05:15:25;;;;;;;104.47;60.28;;;;;;;-146.27;87.70;81727.38;5050137;28;20123;-69
2023/09/09 05:17:51;;;;;;;114.97;63.28;;;;;;;-146.27;88.30;81727.38;5036252;28;20033;-69
2023/09/09 05:20:16;;;;;;;113.72;62.90;;;;;;;-146.27;87.96;81723.34;5036848;28;20040;-69
2023/09/09 05:22:42;;;;;;;115.53;65.93;;;;;;;-146.27;88.21;81725.34;5039112;28;20477;-69
2023/09/09 05:25:07;;;;;;;112.10;63.63;;;;;;;-146.27;88.32;81753.47;5041294;28;20021;-68
2023/09/09 05:27:33;;;;;;;109.68;62.65;;;;;;;-146.27;88.29;81723.34;5038976;28;20123;-68
2023/09/09 05:29:58;;;;;;;122.20;66.00;;;;;;;-146.27;88.40;81745.44;5049523;28;20031;-70
2023/09/09 05:32:24;;;;;;;111.97;64.28;;;;;;;-146.27;88.13;81721.34;5047696;28;20401;-69
2023/09/09 05:34:50;;;;;;;117.97;64.65;;;;;;;-146.27;88.53;81725.34;5041905;28;20017;-68
2023/09/09 05:37:15;;;;;;;117.53;65.32;;;;;;;-146.27;88.46;81709.28;5051701;28;20311;-69
2023/09/09 05:39:41;;;;;;;113.90;64.50;;;;;;;-146.27;88.64;81705.28;5039032;28;20025;-69
2023/09/09 05:42:06;;;;;;;110.72;61.22;;;;;;;-146.27;88.37;81705.28;5046239;28;20021;-70
2023/09/09 05:44:34;;;;;;;119.65;64.57;;;;;;;-146.27;88.63;81677.16;5042473;28;20056;-68
2023/09/09 05:46:59;;;;;;;114.90;62.88;;;;;;;-146.27;88.89;81703.25;5033588;28;20408;-68
2023/09/09 05:49:24;;;;;;;104.18;60.90;;;;;;;-146.27;88.78;81737.41;5044083;28;20040;-69
2023/09/09 05:51:50;;;;;;;110.15;62.53;;;;;;;-146.27;88.43;81673.13;5047030;28;20068;-69
2023/09/09 05:54:15;;;;;;;112.05;61.75;;;;;;;-146.27;88.64;81673.13;5043905;28;20033;-69
2023/09/09 05:56:40;;;;;;;105.10;59.55;;;;;;;-146.27;88.64;81661.09;5048296;28;20112;-69
2023/09/09 05:59:08;;;;;;;113.50;60.90;;;;;;;-146.27;89.01;81636.97;5039103;28;20112;-69
2023/09/09 06:01:34;;;;;;;112.25;62.45;;;;;;;-146.27;89.16;81657.06;5037447;28;20370;-69
2023/09/09 06:03:59;;;;;;;110.95;61.85;;;;;;;-146.27;89.40;81596.81;5047199;28;20029;-69
2023/09/09 06:06:24;;;;;;;113.50;61.63;;;;;;;-146.27;89.54;81570.69;5046937;28;20104;-69
2023/09/09 06:08:50;;;;;;;109.20;62.13;;;;;;;-146.27;89.58;81596.81;5047712;28;20068;-69
2023/09/09 06:11:15;;;;;;;107.97;61.38;;;;;;;-146.27;90.10;81542.59;5046740;28;20038;-69
2023/09/09 06:13:41;;;;;;;118.07;65.50;;;;;;;-146.27;90.72;81470.28;5038550;28;20028;-69
2023/09/09 06:16:06;;;;;;;110.15;61.90;;;;;;;-146.27;90.68;81508.44;5051208;28;20130;-68
2023/09/09 06:18:31;;;;;;;108.63;61.75;;;;;;;-146.27;90.79;81464.25;5047033;28;20025;-68
2023/09/09 06:20:57;;;;;;;97.00;54.15;;;;;;;-146.27;90.35;81500.41;5035265;28;20045;-69
2023/09/09 06:23:23;;;;;;;100.80;56.40;;;;;;;-146.27;89.72;81472.28;5040847;28;20130;-69
2023/09/09 06:25:51;;;;;;;97.63;56.92;;;;;;;-146.27;89.94;81426.09;5047223;28;20028;-68
2023/09/09 06:28:17;;;;;;;91.90;55.97;;;;;;;-146.27;90.10;81434.13;5048015;28;20432;-68
2023/09/09 06:30:43;;;;;;;93.38;55.05;;;;;;;-146.27;89.89;81424.09;5040987;28;20025;-68
2023/09/09 06:33:08;;;;;;;94.10;55.20;;;;;;;-146.27;90.19;81404.00;5038394;28;20096;-68
2023/09/09 06:35:33;;;;;;;87.45;51.50;;;;;;;-146.27;90.10;81381.91;5040095;28;20111;-68
2023/09/09 06:37:59;;;;;;;88.45;52.03;;;;;;;-146.27;90.15;81387.94;5047694;28;20017;-68
2023/09/09 06:40:24;;;;;;;94.03;55.15;;;;;;;-146.27;90.46;81367.88;5042886;28;20094;-68
2023/09/09 06:42:50;;;;;;;85.13;52.50;;;;;;;-146.27;90.36;81347.78;5041217;28;20040;-68
2023/09/09 06:45:15;;;;;;;90.45;50.60;;;;;;;-146.27;90.45;81287.53;5043434;28;20111;-67
2023/09/09 06:47:41;;;;;;;94.72;54.72;;;;;;;-146.27;90.40;81307.63;5035942;28;20112;-68
2023/09/09 06:50:07;;;;;;;89.20;55.08;;;;;;;-146.27;90.42;81313.63;5043689;28;20120;-68
2023/09/09 06:52:32;;;;;;;86.07;52.35;;;;;;;-146.27;90.68;81263.44;5041660;28;20025;-68
2023/09/09 06:54:58;;;;;;;95.25;56.17;;;;;;;-146.27;90.20;81197.16;5045624;28;20040;-68
2023/09/09 06:57:23;;;;;;;99.55;59.60;;;;;;;-146.27;90.75;81181.09;5042231;28;20140;-68
2023/09/09 06:59:48;;;;;;;101.90;61.05;;;;;;;-146.27;90.80;81215.22;5045387;28;20036;-68
2023/09/09 07:02:14;;;;;;;87.32;55.38;;;;;;;-146.27;90.88;81163.03;5045703;28;20520;-69
2023/09/09 07:04:39;;;;;;;105.15;60.42;;;;;;;-146.27;90.72;81150.97;5041826;28;20102;-66
2023/09/09 07:07:05;;;;;;;98.50;59.58;;;;;;;-146.27;90.58;81126.88;5036052;28;20119;-67
2023/09/09 07:09:30;;;;;;;102.03;61.30;;;;;;;-146.27;90.87;81106.78;5031226;28;20436;-67
2023/09/09 07:11:58;;;;;;;102.68;60.97;;;;;;;-146.27;90.88;81074.66;5039902;28;20052;-67
2023/09/09 07:14:23;;;;;;;96.93;59.28;;;;;;;-146.27;90.83;81034.50;5050028;28;20068;-67
2023/09/09 07:16:48;;;;;;;105.80;61.83;;;;;;;-146.27;90.69;81036.50;5034727;28;20406;-66
2023/09/09 07:19:14;;;;;;;93.97;58.38;;;;;;;-146.27;90.64;81042.53;5037589;28;20032;-68
2023/09/09 07:21:39;;;;;;;106.38;64.63;;;;;;;-146.27;90.23;80948.16;5035307;28;20523;-68
2023/09/09 07:24:05;;;;;;;102.68;62.90;;;;;;;-146.27;90.34;80978.28;5056248;28;20483;-67
2023/09/09 07:26:31;;;;;;;94.97;59.10;;;;;;;-146.27;90.44;80938.09;5058775;28;20052;-67
2023/09/09 07:28:57;;;;;;;99.82;60.78;;;;;;;-146.27;90.23;80885.91;5048687;28;20110;-67
2023/09/09 07:31:23;;;;;;;95.57;59.88;;;;;;;-146.27;89.79;80837.72;5044990;28;20079;-68
2023/09/09 07:33:48;;;;;;;100.70;62.70;;;;;;;-146.27;89.98;80827.66;5039580;28;20029;-67
2023/09/09 07:36:13;;;;;;;94.97;57.00;;;;;;;-146.27;89.48;80825.66;5033663;28;20016;-68
2023/09/09 07:38:39;;;;;;;93.22;57.15;;;;;;;-146.27;88.63;80805.56;5040047;28;20027;-67
2023/09/09 07:41:04;;;;;;;82.78;52.58;;;;;;;-146.27;88.54;80775.47;5047048;28;20059;-67
2023/09/09 07:43:30;;;;;;;80.30;50.00;;;;;;;-146.27;88.16;80749.34;5043906;28;20033;-67
2023/09/09 07:45:55;;;;;;;85.93;55.10;;;;;;;-146.27;87.70;80737.31;5049623;28;20054;-66
2023/09/09 07:48:23;;;;;;;83.07;53.15;;;;;;;-146.27;87.20;80657.00;5048824;28;20477;-68
2023/09/09 07:50:54;;;;;;;80.32;53.85;;;;;;;-146.27;86.83;80648.97;5048851;28;20029;-68
2023/09/09 07:53:20;;;;;;;83.32;52.92;;;;;;;-146.27;86.14;80636.91;5047222;28;20032;-68
2023/09/09 07:55:49;;;;;;;78.90;53.03;;;;;;;-146.27;86.08;80596.75;5032355;28;20025;-68
2023/09/09 07:58:16;;;;;;;79.03;50.92;;;;;;;-146.27;86.01;80528.47;5048490;28;20029;-68
2023/09/09 08:00:41;;;;;;;75.63;45.30;;;;;;;-146.27;85.97;80548.56;5049796;28;20074;-68
2023/09/09 08:03:08;;;;;;;64.05;43.88;;;;;;;-146.27;85.18;80476.28;5047079;28;20032;-67
2023/09/09 08:05:33;;;;;;;63.67;43.63;;;;;;;-146.27;84.87;80476.28;5037119;28;20029;-68
2023/09/09 08:07:59;;;;;;;63.85;44.50;;;;;;;-146.27;84.37;80432.09;5044800;28;20036;-68
2023/09/09 08:10:24;;;;;;;77.88;48.78;;;;;;;-146.27;85.21;80440.13;5041975;28;20524;-66
2023/09/09 08:12:50;;;;;;;72.80;47.97;;;;;;;-146.27;85.23;80474.28;5036742;28;20036;-67
2023/09/09 08:15:15;;;;;;;67.43;43.95;;;;;;;-146.27;85.26;80412.03;5036132;28;20057;-66
2023/09/09 08:17:40;;;;;;;59.35;41.08;;;;;;;-146.27;84.85;80377.91;5039855;28;20028;-67
2023/09/09 08:20:07;;;;;;;51.20;35.88;;;;;;;-146.27;84.56;80337.75;5036578;28;20039;-68
2023/09/09 08:22:35;;;;;;;40.35;29.02;;;;;;;-146.27;83.77;80343.75;5044381;28;20025;-67
2023/09/09 08:25:02;;;;;;;42.55;28.55;;;;;;;-146.27;82.87;80315.66;5035917;28;20048;-67
2023/09/09 08:27:28;;;;;;;41.97;29.55;;;;;;;-146.27;82.13;80269.47;5049461;28;20114;-68
2023/09/09 08:29:53;;;;;;;41.88;29.33;;;;;;;-146.27;81.62;80165.06;5034341;28;20053;-67
2023/09/09 08:32:19;;;;;;;52.80;34.25;;;;;;;-146.27;80.92;80155.03;5050258;28;20037;-66
2023/09/09 08:34:45;;;;;;;42.78;31.73;;;;;;;-146.27;81.34;80064.69;5047567;28;20126;-70
2023/09/09 08:37:10;;;;;;;36.63;26.90;;;;;;;-146.27;81.27;80036.59;5049014;28;20543;-69
2023/09/09 08:39:35;;;;;;;32.30;22.60;;;;;;;-146.27;79.87;79976.34;5044197;28;20033;-69
2023/09/09 08:42:15;;;;;;;32.30;24.70;;;;;;;-146.27;78.52;79926.16;5040463;28;20053;-68
2023/09/09 08:45:09;;;;;;;24.17;18.65;;;;;;;-146.27;75.64;79851.88;5039389;28;20021;-70
2023/09/09 08:47:36;;;;;;;25.55;17.52;;;;;;;-146.27;74.85;79793.66;5035179;28;20097;-69
2023/09/09 08:50:04;;;;;;;21.95;16.42;;;;;;;-146.27;73.97;79745.50;5039802;28;20048;-69
2023/09/09 08:52:29;;;;;;;23.83;18.88;;;;;;;-146.27;73.80;79709.34;5041300;28;20435;-69
2023/09/09 08:54:56;;;;;;;20.83;15.13;;;;;;;-146.27;74.02;79604.97;5038693;28;20017;-69
2023/09/09 08:57:23;;;;;;;20.95;16.20;;;;;;;-146.27;72.95;79540.72;5041753;28;20123;-69
2023/09/09 08:59:49;;;;;;;15.25;11.60;;;;;;;-146.27;72.43;79528.69;5046361;28;20377;-69
2023/09/09 09:02:15;;;;;;;22.60;17.10;;;;;;;-146.27;71.78;79486.53;5035528;28;20032;-69
2023/09/09 09:04:41;;;;;;;19.83;16.67;;;;;;;-146.27;71.67;79416.28;5045923;28;20029;-69
2023/09/09 09:07:07;;;;;;;21.08;16.88;;;;;;;-146.27;72.56;79352.03;5040995;28;20441;-70
2023/09/09 09:09:34;;;;;;;23.00;16.92;;;;;;;-146.27;72.98;79325.94;5045965;28;20026;-69
2023/09/09 09:12:00;;;;;;;24.70;18.27;;;;;;;-146.27;70.86;79327.94;5039438;28;20033;-69
2023/09/09 09:14:26;;;;;;;20.50;14.55;;;;;;;-146.27;70.55;79211.53;5041368;28;20280;-69
2023/09/09 09:16:53;;;;;;;21.95;13.70;;;;;;;-146.27;69.40;79131.25;5045239;28;20521;-70
2023/09/09 09:19:29;;;;;;;21.20;16.90;;;;;;;-146.27;68.91;79046.94;5050118;28;20108;-66
2023/09/09 09:21:59;;;;;;;23.38;16.52;;;;;;;-146.27;68.75;78970.69;5043832;28;20140;-69
2023/09/09 09:24:25;;;;;;;23.25;15.75;;;;;;;-146.27;68.76;78904.44;5043446;28;20075;-69
2023/09/09 09:26:50;;;;;;;22.65;16.77;;;;;;;-146.27;69.97;78850.25;5040097;28;20120;-69
2023/09/09 09:29:16;;;;;;;20.38;14.82;;;;;;;-146.27;70.07;78830.19;5038502;28;20121;-69
2023/09/09 09:31:41;;;;;;;19.58;14.50;;;;;;;-146.27;70.68;78749.91;5044952;28;20044;-69
2023/09/09 09:34:10;;;;;;;17.55;14.18;;;;;;;-146.27;68.23;78733.84;5050309;28;20028;-68
2023/09/09 09:36:35;;;;;;;14.40;11.13;;;;;;;-146.27;67.58;78649.56;5052874;28;20017;-69
2023/09/09 09:39:10;;;;;;;14.55;11.73;;;;;;;-146.27;65.86;78615.44;5037869;28;20068;-69
2023/09/09 09:41:38;;;;;;;19.15;15.30;;;;;;;-146.27;69.17;78617.44;5050105;28;20043;-69
2023/09/09 09:44:16;;;;;;;20.05;14.45;;;;;;;-146.27;68.34;78527.13;5047941;28;20485;-70
2023/09/09 09:46:41;;;;;;;15.45;12.75;;;;;;;-146.27;68.94;78462.91;5043454;28;20036;-69
2023/09/09 09:49:08;;;;;;;18.05;13.27;;;;;;;-146.27;66.75;78382.63;5048662;28;20025;-69
2023/09/09 09:51:43;;;;;;;17.23;13.55;;;;;;;-146.27;67.55;78298.34;5042909;28;20470;-69
2023/09/09 09:54:09;;;;;;;18.92;10.40;;;;;;;-146.27;64.75;78218.09;5049490;28;20105;-69
2023/09/09 09:56:38;;;;;;;17.58;12.10;;;;;;;-146.27;59.96;78165.91;5051262;28;20439;-69
2023/09/09 09:59:05;;;;;;;14.15;10.02;;;;;;;-146.27;57.82;78143.84;5033417;28;20049;-69
2023/09/09 10:01:32;;;;;;;13.48;10.35;;;;;;;-146.27;59.26;78079.63;5046132;28;20060;-69
2023/09/09 10:04:04;;;;;;;20.85;10.80;;;;;;;-146.27;62.53;77917.09;5050915;28;20025;-68
2023/09/09 10:06:33;;;;;;;11.65;9.30;;;;;;;-146.27;59.08;77810.75;5049320;28;20524;-69
2023/09/09 10:09:19;;;;;;;13.85;11.00;;;;;;;-146.27;56.36;77724.47;5050226;28;20104;-69
2023/09/09 10:12:18;;;;;;;14.63;11.35;;;;;;;-146.27;59.75;77646.22;5027990;28;20037;-69
2023/09/09 10:14:45;;;;;;;12.75;11.13;;;;;;;-146.27;60.26;77547.91;5025301;28;20064;-69
2023/09/09 10:17:12;;;;;;;17.60;12.27;;;;;;;-146.27;57.64;77505.75;5027243;28;20075;-69
2023/09/09 10:19:39;;;;;;;15.95;10.50;;;;;;;-146.27;57.76;77469.66;5049020;28;20200;-69
2023/09/09 10:22:05;;;;;;;13.05;9.63;;;;;;;-146.27;58.65;77389.41;5038943;28;20498;-69
2023/09/09 10:24:33;;;;;;;11.38;8.50;;;;;;;-146.27;59.13;77301.13;5043001;28;20032;-69
2023/09/09 10:27:01;;;;;;;11.48;9.45;;;;;;;-146.27;55.06;77269.03;5031607;28;20389;-71
2023/09/09 10:29:29;;;;;;;14.65;10.52;;;;;;;-146.27;56.20;77132.59;5033512;28;20075;-70
2023/09/09 10:31:57;;;;;;;10.38;8.80;;;;;;;-146.27;57.35;77094.47;5063085;28;20030;-70
2023/09/09 10:34:23;;;;;;;12.63;7.30;;;;;;;-146.27;58.60;76927.97;5039261;28;20032;-70
2023/09/09 10:36:52;;;;;;;10.45;7.32;;;;;;;-146.27;54.67;76879.81;5043123;28;22336;-70
2023/09/09 10:39:21;;;;;;;9.02;7.22;;;;;;;-146.27;54.87;76687.25;5033179;28;20649;-69
2023/09/09 10:41:47;;;;;;;11.60;7.00;;;;;;;-146.27;54.22;76554.84;5047064;28;20408;-69
2023/09/09 10:44:14;;;;;;;8.88;7.30;;;;;;;-146.27;54.19;76476.63;5049134;28;20025;-69
2023/09/09 10:46:39;;;;;;;10.25;7.38;;;;;;;-146.27;52.48;76482.66;5048880;28;20412;-73
2023/09/09 10:49:05;;;;;;;9.32;6.38;;;;;;;-146.27;50.73;76392.38;5042364;28;20020;-70
2023/09/09 10:51:44;;;;;;;7.70;5.65;;;;;;;-146.27;55.14;76181.78;5050299;28;20033;-69
2023/09/09 10:54:12;;;;;;;8.68;5.70;;;;;;;-146.27;53.17;76097.53;5038253;28;20037;-66